createdAt,value
2022-12-29T00:00:01.432Z,99.90
2022-12-29T00:02:28.249Z,99.90
2022-12-29T00:04:55.174Z,99.90
2022-12-29T00:07:25.478Z,99.90
2022-12-29T00:09:52.381Z,99.90
2022-12-29T00:12:19.218Z,99.90
2022-12-29T00:15:04.927Z,99.90
2022-12-29T00:17:31.712Z,99.90
2022-12-29T00:20:17.194Z,99.90
2022-12-29T00:23:03.384Z,99.90
2022-12-29T00:25:49.063Z,99.90
2022-12-29T00:28:34.587Z,99.90
2022-12-29T00:31:40.018Z,99.90
2022-12-29T00:34:27.404Z,99.90
2022-12-29T00:36:54.206Z,99.90
2022-12-29T00:39:39.756Z,99.90
2022-12-29T00:42:26.494Z,99.90
2022-12-29T00:44:53.377Z,99.90
2022-12-29T00:47:20.175Z,99.90
2022-12-29T00:49:47.215Z,99.90
2022-12-29T00:52:14.114Z,99.90
2022-12-29T00:54:41.908Z,99.90
2022-12-29T00:57:09.718Z,99.90
2022-12-29T00:59:37.221Z,99.90
2022-12-29T01:02:04.129Z,99.90
2022-12-29T01:04:31.019Z,99.90
2022-12-29T01:06:57.799Z,99.90
2022-12-29T01:09:43.631Z,99.90
2022-12-29T01:12:10.881Z,99.90
2022-12-29T01:14:38.557Z,99.90
2022-12-29T01:17:05.541Z,99.90
2022-12-29T01:19:33.443Z,99.90
2022-12-29T01:22:01.139Z,99.90
2022-12-29T01:24:28.581Z,99.90
2022-12-29T01:26:55.734Z,99.90
2022-12-29T01:29:23.178Z,99.90
2022-12-29T01:31:51.120Z,99.90
2022-12-29T01:34:18.780Z,99.90
2022-12-29T01:36:45.664Z,99.90
2022-12-29T01:39:13.529Z,99.90
2022-12-29T01:41:41.669Z,99.90
2022-12-29T01:44:27.575Z,99.90
2022-12-29T01:46:54.617Z,99.90
2022-12-29T01:49:24.309Z,99.90
2022-12-29T01:51:59.608Z,99.90
2022-12-29T01:54:53.705Z,99.90
2022-12-29T01:57:24.869Z,99.90
2022-12-29T02:00:01.479Z,99.90
2022-12-29T02:02:33.348Z,99.90
2022-12-29T02:05:04.647Z,99.90
2022-12-29T02:07:32.397Z,99.90
2022-12-29T02:09:59.589Z,99.90
2022-12-29T02:12:26.413Z,99.90
2022-12-29T02:14:56.839Z,99.90
2022-12-29T02:17:42.498Z,99.90
2022-12-29T02:20:24.481Z,99.90
2022-12-29T02:22:57.156Z,99.90
2022-12-29T02:25:26.999Z,99.90
2022-12-29T02:28:13.487Z,99.90
2022-12-29T02:30:47.338Z,99.90
2022-12-29T02:33:16.757Z,99.90
2022-12-29T02:35:51.907Z,99.90
2022-12-29T02:38:41.959Z,99.90
2022-12-29T02:41:09.115Z,99.90
2022-12-29T02:43:44.241Z,99.90
2022-12-29T02:46:22.488Z,99.90
2022-12-29T02:51:53.147Z,99.90
2022-12-29T02:54:38.727Z,99.90
2022-12-29T02:57:13.423Z,99.90
2022-12-29T02:59:42.229Z,99.90
2022-12-29T03:02:18.086Z,99.90
2022-12-29T03:05:05.760Z,99.90
2022-12-29T03:07:44.461Z,99.90
2022-12-29T03:10:30.156Z,99.90
2022-12-29T03:13:21.278Z,99.90
2022-12-29T03:16:05.043Z,99.90
2022-12-29T03:18:38.630Z,99.90
2022-12-29T03:21:08.561Z,99.90
2022-12-29T03:23:36.108Z,99.90
2022-12-29T03:26:04.304Z,99.90
2022-12-29T03:28:37.470Z,99.90
2022-12-29T03:31:04.896Z,99.90
2022-12-29T03:33:32.913Z,99.90
2022-12-29T03:36:07.785Z,99.90
2022-12-29T03:38:43.608Z,99.90
2022-12-29T03:41:15.857Z,99.90
2022-12-29T03:43:44.058Z,99.90
2022-12-29T03:46:11.055Z,99.90
2022-12-29T03:48:39.426Z,99.90
2022-12-29T03:51:06.361Z,99.90
2022-12-29T03:53:33.193Z,99.90
2022-12-29T03:56:00.988Z,99.90
2022-12-29T03:58:27.879Z,99.90
2022-12-29T04:01:03.425Z,99.90
2022-12-29T04:03:33.272Z,99.90
2022-12-29T04:06:00.404Z,99.90
2022-12-29T04:08:30.071Z,99.90
2022-12-29T04:10:58.296Z,99.90
2022-12-29T04:13:25.131Z,99.90
2022-12-29T04:15:52.725Z,99.90
2022-12-29T04:18:19.598Z,99.90
2022-12-29T04:21:02.188Z,99.90
2022-12-29T04:23:31.037Z,99.90
2022-12-29T04:25:57.989Z,99.90
2022-12-29T04:28:26.213Z,99.90
2022-12-29T04:31:11.646Z,99.90
2022-12-29T04:33:41.398Z,99.90
2022-12-29T04:36:08.587Z,99.90
2022-12-29T04:38:37.432Z,99.90
2022-12-29T04:41:05.782Z,99.90
2022-12-29T04:43:34.039Z,99.90
2022-12-29T04:46:21.439Z,99.90
2022-12-29T04:48:59.317Z,99.90
2022-12-29T04:51:52.782Z,99.90
2022-12-29T04:54:20.404Z,99.90
2022-12-29T04:56:55.263Z,99.90
2022-12-29T04:59:22.099Z,99.90
2022-12-29T05:01:51.120Z,99.90
2022-12-29T05:04:20.370Z,99.90
2022-12-29T05:06:47.525Z,99.90
2022-12-29T05:09:14.874Z,99.90
2022-12-29T05:11:41.746Z,99.90
2022-12-29T05:14:10.105Z,99.90
2022-12-29T05:16:38.502Z,99.90
2022-12-29T05:19:06.051Z,99.90
2022-12-29T05:21:33.693Z,99.90
2022-12-29T05:24:00.756Z,99.90
2022-12-29T05:26:28.724Z,99.90
2022-12-29T05:29:10.407Z,99.90
2022-12-29T05:31:37.534Z,99.90
2022-12-29T05:34:06.269Z,99.90
2022-12-29T05:36:37.697Z,99.90
2022-12-29T05:39:09.608Z,99.90
2022-12-29T05:41:37.494Z,99.90
2022-12-29T05:44:16.232Z,99.90
2022-12-29T05:47:14.337Z,99.90
2022-12-29T05:50:19.248Z,99.90
2022-12-29T05:53:08.859Z,99.90
2022-12-29T05:55:37.400Z,99.90
2022-12-29T05:58:04.372Z,99.90
2022-12-29T06:00:32.019Z,99.90
2022-12-29T06:02:59.804Z,99.90
2022-12-29T06:05:32.671Z,99.90
2022-12-29T06:07:59.787Z,99.90
2022-12-29T06:10:37.039Z,99.90
2022-12-29T06:13:06.581Z,99.90
2022-12-29T06:15:38.796Z,99.90
2022-12-29T06:18:13.780Z,99.90
2022-12-29T06:20:46.334Z,99.90
2022-12-29T06:23:20.630Z,99.90
2022-12-29T06:25:48.304Z,99.90
2022-12-29T06:28:18.312Z,99.90
2022-12-29T06:30:46.428Z,99.90
2022-12-29T06:33:14.107Z,99.90
2022-12-29T06:35:48.377Z,99.90
2022-12-29T06:38:15.717Z,99.90
2022-12-29T06:40:44.150Z,99.90
2022-12-29T06:43:11.232Z,99.90
2022-12-29T06:45:58.338Z,96.30
2022-12-29T06:48:25.475Z,96.60
2022-12-29T06:50:52.261Z,99.90
2022-12-29T06:53:19.094Z,99.90
2022-12-29T06:55:45.948Z,99.90
2022-12-29T06:58:15.377Z,99.90
2022-12-29T07:00:42.271Z,99.90
2022-12-29T07:03:09.199Z,99.90
2022-12-29T07:05:36.084Z,99.90
2022-12-29T07:08:03.087Z,99.90
2022-12-29T07:10:32.801Z,99.90
2022-12-29T07:12:59.955Z,99.90
2022-12-29T07:15:27.126Z,99.90
2022-12-29T07:17:53.988Z,99.90
2022-12-29T07:20:26.468Z,99.90
2022-12-29T07:22:53.781Z,99.90
2022-12-29T07:25:22.176Z,99.90
2022-12-29T07:27:49.749Z,99.90
2022-12-29T07:30:16.758Z,99.90
2022-12-29T07:32:44.900Z,99.90
2022-12-29T07:35:11.993Z,99.90
2022-12-29T07:37:38.856Z,99.90
2022-12-29T07:40:05.951Z,99.90
2022-12-29T07:42:41.781Z,99.90
2022-12-29T07:45:10.397Z,99.90
2022-12-29T07:47:49.249Z,99.90
2022-12-29T07:50:16.269Z,99.90
2022-12-29T07:52:43.434Z,99.90
2022-12-29T07:55:10.346Z,99.90
2022-12-29T07:57:37.189Z,99.90
2022-12-29T08:00:13.864Z,99.90
2022-12-29T08:02:40.792Z,99.90
2022-12-29T08:05:07.769Z,96.40
2022-12-29T08:07:34.613Z,81.50
2022-12-29T08:10:02.524Z,66.80
2022-12-29T08:12:29.333Z,78.60
2022-12-29T08:14:56.181Z,80.50
2022-12-29T08:17:23.075Z,86.90
2022-12-29T08:19:49.969Z,94.40
2022-12-29T08:22:19.677Z,94.80
2022-12-29T08:24:46.593Z,81.80
2022-12-29T08:27:19.939Z,66.60
2022-12-29T08:29:50.782Z,81.60
2022-12-29T08:32:17.939Z,56.90
2022-12-29T08:34:45.152Z,59.40
2022-12-29T08:37:11.994Z,65.30
2022-12-29T08:39:39.426Z,71.20
2022-12-29T08:42:06.242Z,60.60
2022-12-29T08:44:33.767Z,64.90
2022-12-29T08:47:00.802Z,58.70
2022-12-29T08:49:27.827Z,57.40
2022-12-29T08:51:54.639Z,73.30
2022-12-29T08:54:21.720Z,63.00
2022-12-29T08:56:48.617Z,59.70
2022-12-29T08:59:16.623Z,56.50
2022-12-29T09:01:45.902Z,53.80
2022-12-29T09:04:15.546Z,56.50
2022-12-29T09:06:43.439Z,67.00
2022-12-29T09:09:10.450Z,56.10
2022-12-29T09:11:37.389Z,60.80
2022-12-29T09:14:05.188Z,61.90
2022-12-29T09:16:32.557Z,47.60
2022-12-29T09:18:59.657Z,51.50
2022-12-29T09:21:26.509Z,55.80
2022-12-29T09:23:53.538Z,52.00
2022-12-29T09:26:20.398Z,51.80
2022-12-29T09:28:50.478Z,47.10
2022-12-29T09:31:17.527Z,48.40
2022-12-29T09:33:44.865Z,57.30
2022-12-29T09:36:11.901Z,56.70
2022-12-29T09:38:38.759Z,64.60
2022-12-29T09:41:24.464Z,69.60
2022-12-29T09:44:05.782Z,65.70
2022-12-29T09:46:38.151Z,62.00
2022-12-29T09:49:05.087Z,73.20
2022-12-29T09:51:32.367Z,68.00
2022-12-29T09:54:20.861Z,69.60
2022-12-29T09:56:48.510Z,70.80
2022-12-29T09:59:18.456Z,81.40
2022-12-29T10:01:48.629Z,83.30
2022-12-29T10:04:15.769Z,83.60
2022-12-29T10:09:44.993Z,79.10
2022-12-29T10:12:24.613Z,86.30
2022-12-29T10:15:07.521Z,86.30
2022-12-29T10:17:37.497Z,87.30
2022-12-29T10:20:13.717Z,82.90
2022-12-29T10:22:59.591Z,87.80
2022-12-29T10:25:31.143Z,87.50
2022-12-29T10:28:01.491Z,80.00
2022-12-29T10:30:28.642Z,76.00
2022-12-29T10:32:55.699Z,78.10
2022-12-29T10:35:27.554Z,67.50
2022-12-29T10:37:54.550Z,71.80
2022-12-29T10:40:28.486Z,72.40
2022-12-29T10:42:57.049Z,66.30
2022-12-29T10:45:26.554Z,76.50
2022-12-29T10:47:56.829Z,71.00
2022-12-29T10:50:25.071Z,63.80
2022-12-29T10:52:52.639Z,80.70
2022-12-29T10:55:25.717Z,69.20
2022-12-29T10:57:52.814Z,64.30
2022-12-29T11:00:21.889Z,79.50
2022-12-29T11:02:54.976Z,60.70
2022-12-29T11:05:42.275Z,74.50
2022-12-29T11:08:15.138Z,62.20
2022-12-29T11:10:45.713Z,67.60
2022-12-29T11:13:20.003Z,73.70
2022-12-29T11:15:48.297Z,80.50
2022-12-29T11:18:21.784Z,80.10
2022-12-29T11:20:49.977Z,75.50
2022-12-29T11:23:35.982Z,73.90
2022-12-29T11:26:24.577Z,69.40
2022-12-29T11:29:21.085Z,62.20
2022-12-29T11:31:56.354Z,77.30
2022-12-29T11:34:28.095Z,62.60
2022-12-29T11:36:59.660Z,62.70
2022-12-29T11:39:29.686Z,76.50
2022-12-29T11:41:59.638Z,72.60
2022-12-29T11:44:27.755Z,74.00
2022-12-29T11:46:55.182Z,61.00
2022-12-29T11:49:23.834Z,77.90
2022-12-29T11:51:56.087Z,71.90
2022-12-29T11:54:31.843Z,59.90
2022-12-29T11:57:09.250Z,60.50
2022-12-29T11:59:42.026Z,64.60
2022-12-29T12:02:21.293Z,74.70
2022-12-29T12:04:50.319Z,63.70
2022-12-29T12:07:29.800Z,63.50
2022-12-29T12:10:06.542Z,63.80
2022-12-29T12:12:38.704Z,69.90
2022-12-29T12:15:06.470Z,62.40
2022-12-29T12:18:05.632Z,62.50
2022-12-29T12:21:13.476Z,65.90
2022-12-29T12:23:43.379Z,63.70
2022-12-29T12:26:17.735Z,74.80
2022-12-29T12:28:53.224Z,79.40
2022-12-29T12:31:27.251Z,68.70
2022-12-29T12:34:00.492Z,80.40
2022-12-29T12:36:30.480Z,65.50
2022-12-29T12:39:06.543Z,75.90
2022-12-29T12:41:45.783Z,75.90
2022-12-29T12:44:42.332Z,79.10
2022-12-29T12:47:21.231Z,80.50
2022-12-29T12:49:51.144Z,66.90
2022-12-29T12:52:18.086Z,68.50
2022-12-29T12:55:05.518Z,71.20
2022-12-29T12:57:50.474Z,83.10
2022-12-29T13:00:21.452Z,85.90
2022-12-29T13:03:06.164Z,79.60
2022-12-29T13:05:39.686Z,74.80
2022-12-29T13:08:25.049Z,77.40
2022-12-29T13:10:55.199Z,80.80
2022-12-29T13:13:41.040Z,83.50
2022-12-29T13:16:26.415Z,79.80
2022-12-29T13:18:53.339Z,83.10
2022-12-29T13:21:20.188Z,83.30
2022-12-29T13:24:01.665Z,83.90
2022-12-29T13:26:44.811Z,82.60
2022-12-29T13:29:17.805Z,71.30
2022-12-29T13:31:58.935Z,80.60
2022-12-29T13:34:25.880Z,79.60
2022-12-29T13:36:55.058Z,81.70
2022-12-29T13:39:36.156Z,82.60
2022-12-29T13:42:04.583Z,79.90
2022-12-29T13:44:36.602Z,84.40
2022-12-29T13:47:07.793Z,81.20
2022-12-29T13:49:35.226Z,83.40
2022-12-29T13:52:12.405Z,85.70
2022-12-29T13:54:42.349Z,85.70
2022-12-29T13:57:13.311Z,85.50
2022-12-29T13:59:49.167Z,85.00
2022-12-29T14:02:22.384Z,81.80
2022-12-29T14:04:59.277Z,82.00
2022-12-29T14:07:26.509Z,85.50
2022-12-29T14:09:54.132Z,82.30
2022-12-29T14:12:24.068Z,74.30
2022-12-29T14:14:51.044Z,86.20
2022-12-29T14:17:21.584Z,87.40
2022-12-29T14:19:52.584Z,84.50
2022-12-29T14:22:33.167Z,84.90
2022-12-29T14:25:01.272Z,76.40
2022-12-29T14:27:31.493Z,89.30
2022-12-29T14:29:58.567Z,80.60
2022-12-29T14:32:25.500Z,88.30
2022-12-29T14:34:53.016Z,89.60
2022-12-29T14:37:28.061Z,86.00
2022-12-29T14:40:15.374Z,82.20
2022-12-29T14:42:43.062Z,81.70
2022-12-29T14:45:19.838Z,88.50
2022-12-29T14:47:47.964Z,91.00
2022-12-29T14:50:20.722Z,89.30
2022-12-29T14:52:49.948Z,91.10
2022-12-29T14:55:16.866Z,90.10
2022-12-29T14:57:44.937Z,91.60
2022-12-29T15:00:47.672Z,91.50
2022-12-29T15:03:25.199Z,89.40
2022-12-29T15:06:09.689Z,91.20
2022-12-29T15:09:00.481Z,88.80
2022-12-29T15:11:36.551Z,90.60
2022-12-29T15:14:03.618Z,91.80
2022-12-29T15:16:32.502Z,91.60
2022-12-29T15:18:59.805Z,93.30
2022-12-29T15:21:28.017Z,92.70
2022-12-29T15:23:55.047Z,93.10
2022-12-29T15:26:23.776Z,91.00
2022-12-29T15:28:52.014Z,94.10
2022-12-29T15:31:26.426Z,88.10
2022-12-29T15:34:03.618Z,92.90
2022-12-29T15:36:37.732Z,87.40
2022-12-29T15:39:19.247Z,94.30
2022-12-29T15:42:00.930Z,90.30
2022-12-29T15:44:35.454Z,92.50
2022-12-29T15:47:05.308Z,92.10
2022-12-29T15:49:32.769Z,93.40
2022-12-29T15:51:59.811Z,91.40
2022-12-29T15:54:28.895Z,93.00
2022-12-29T15:56:56.756Z,90.90
2022-12-29T15:59:23.657Z,92.50
2022-12-29T16:01:51.058Z,91.00
2022-12-29T16:04:18.398Z,94.70
2022-12-29T16:06:54.659Z,97.30
2022-12-29T16:09:31.899Z,98.50
2022-12-29T16:12:03.132Z,95.80
2022-12-29T16:14:42.317Z,97.00
2022-12-29T16:17:11.451Z,98.00
2022-12-29T16:19:39.829Z,98.90
2022-12-29T16:22:12.583Z,98.50
2022-12-29T16:24:40.653Z,96.00
2022-12-29T16:27:09.454Z,93.40
2022-12-29T16:29:36.650Z,94.80
2022-12-29T16:32:07.379Z,96.40
2022-12-29T16:34:43.116Z,97.80
2022-12-29T16:37:30.353Z,96.20
2022-12-29T16:39:57.446Z,97.90
2022-12-29T16:42:51.261Z,96.70
2022-12-29T16:45:25.115Z,97.90
2022-12-29T16:48:12.256Z,96.50
2022-12-29T16:50:40.160Z,97.80
2022-12-29T16:53:08.917Z,95.60
2022-12-29T16:55:35.809Z,94.60
2022-12-29T16:58:02.907Z,91.90
2022-12-29T17:00:33.007Z,97.10
2022-12-29T17:03:01.568Z,95.80
2022-12-29T17:05:28.620Z,98.00
2022-12-29T17:07:58.555Z,98.30
2022-12-29T17:10:45.448Z,98.40
2022-12-29T17:13:12.423Z,95.10
2022-12-29T17:15:39.437Z,96.60
2022-12-29T17:18:13.348Z,97.40
2022-12-29T17:20:40.699Z,95.90
2022-12-29T17:23:14.650Z,96.70
2022-12-29T17:25:41.931Z,91.80
2022-12-29T17:28:17.797Z,96.20
2022-12-29T17:30:44.855Z,96.60
2022-12-29T17:33:13.666Z,95.50
2022-12-29T17:35:40.626Z,97.10
2022-12-29T17:38:26.033Z,97.20
2022-12-29T17:40:53.020Z,97.10
2022-12-29T17:43:20.421Z,97.20
2022-12-29T17:45:53.775Z,97.10
2022-12-29T17:48:21.240Z,97.20
2022-12-29T17:50:49.642Z,97.00
2022-12-29T17:53:23.989Z,96.60
2022-12-29T17:55:51.268Z,94.80
2022-12-29T17:58:18.256Z,96.50
2022-12-29T18:00:45.687Z,96.50
2022-12-29T18:03:17.128Z,96.20
2022-12-29T18:05:44.735Z,96.80
2022-12-29T18:08:15.091Z,95.00
2022-12-29T18:10:42.417Z,96.60
2022-12-29T18:13:14.391Z,96.90
2022-12-29T18:15:41.452Z,97.20
2022-12-29T18:18:13.405Z,97.10
2022-12-29T18:20:41.213Z,97.30
2022-12-29T18:23:15.438Z,97.10
2022-12-29T18:25:44.146Z,97.60
2022-12-29T18:28:11.149Z,98.00
2022-12-29T18:30:38.235Z,97.30
2022-12-29T18:33:05.231Z,96.50
2022-12-29T18:35:38.516Z,97.40
2022-12-29T18:38:06.418Z,96.70
2022-12-29T18:40:34.264Z,96.80
2022-12-29T18:43:01.220Z,92.60
2022-12-29T18:45:30.147Z,96.40
2022-12-29T18:47:57.175Z,97.30
2022-12-29T18:50:24.243Z,96.10
2022-12-29T18:52:51.148Z,98.10
2022-12-29T18:55:25.431Z,98.70
2022-12-29T18:57:52.416Z,97.60
2022-12-29T19:00:20.809Z,99.60
2022-12-29T19:02:48.277Z,99.80
2022-12-29T19:05:20.681Z,99.10
2022-12-29T19:07:47.943Z,99.90
2022-12-29T19:10:15.594Z,98.90
2022-12-29T19:12:43.600Z,96.60
2022-12-29T19:15:30.757Z,99.40
2022-12-29T19:18:41.830Z,95.30
2022-12-29T19:20:47.508Z,99.90
2022-12-29T19:23:15.913Z,99.90
2022-12-29T19:25:42.841Z,99.90
2022-12-29T19:28:16.145Z,99.90
2022-12-29T19:30:45.293Z,99.90
2022-12-29T19:33:14.223Z,99.90
2022-12-29T19:35:41.440Z,99.90
2022-12-29T19:38:09.027Z,99.90
2022-12-29T19:40:35.975Z,99.90
2022-12-29T19:43:03.739Z,99.90
2022-12-29T19:45:30.936Z,99.90
2022-12-29T19:47:57.939Z,99.90
2022-12-29T19:50:29.767Z,99.90
2022-12-29T19:53:04.824Z,99.90
2022-12-29T19:55:32.534Z,99.90
2022-12-29T19:57:59.674Z,99.90
2022-12-29T20:00:26.733Z,99.90
2022-12-29T20:02:53.887Z,99.90
2022-12-29T20:05:20.989Z,99.90
2022-12-29T20:07:48.037Z,99.90
2022-12-29T20:10:15.003Z,99.90
2022-12-29T20:12:42.251Z,99.90
2022-12-29T20:15:11.149Z,99.90
2022-12-29T20:18:11.897Z,99.90
2022-12-29T20:20:25.102Z,99.90
2022-12-29T20:22:52.197Z,99.90
2022-12-29T20:25:44.179Z,99.90
2022-12-29T20:28:06.309Z,99.90
2022-12-29T20:30:33.785Z,99.90
2022-12-29T20:33:06.124Z,99.90
2022-12-29T20:35:34.954Z,99.90
2022-12-29T20:38:02.157Z,99.90
2022-12-29T20:40:30.522Z,99.90
2022-12-29T20:42:57.806Z,99.90
2022-12-29T20:45:25.174Z,99.90
2022-12-29T20:47:55.548Z,99.90
2022-12-29T20:50:22.648Z,99.90
2022-12-29T20:52:53.979Z,99.90
2022-12-29T20:55:25.645Z,99.90
2022-12-29T21:00:39.737Z,99.90
2022-12-29T21:03:06.822Z,99.90
2022-12-29T21:05:36.845Z,99.90
2022-12-29T21:08:04.361Z,99.90
2022-12-29T21:10:33.227Z,99.90
2022-12-29T21:13:01.671Z,99.90
2022-12-29T21:15:30.150Z,99.90
2022-12-29T21:17:57.186Z,99.90
2022-12-29T21:20:32.286Z,99.90
2022-12-29T21:23:00.960Z,99.90
2022-12-29T21:25:36.971Z,99.90
2022-12-29T21:28:07.767Z,99.90
2022-12-29T21:30:35.206Z,99.90
2022-12-29T21:33:02.228Z,99.90
2022-12-29T21:35:29.178Z,99.90
2022-12-29T21:37:56.292Z,99.90
2022-12-29T21:40:23.203Z,99.90
2022-12-29T21:42:50.303Z,99.90
2022-12-29T21:45:26.446Z,99.90
2022-12-29T21:48:12.914Z,99.90
2022-12-29T21:51:00.481Z,99.90
2022-12-29T21:53:40.790Z,99.90
2022-12-29T21:56:12.594Z,99.90
2022-12-29T21:58:59.788Z,99.90
2022-12-29T22:01:45.921Z,99.90
2022-12-29T22:04:32.742Z,99.90
2022-12-29T22:07:18.469Z,99.90
2022-12-29T22:10:04.785Z,99.90
2022-12-29T22:12:51.009Z,99.90
2022-12-29T22:15:18.066Z,99.90
2022-12-29T22:17:48.725Z,99.90
2022-12-29T22:20:16.666Z,99.90
2022-12-29T22:22:43.944Z,99.90
2022-12-29T22:25:11.033Z,99.90
2022-12-29T22:27:38.004Z,99.90
2022-12-29T22:30:05.336Z,99.90
2022-12-29T22:32:32.687Z,99.90
2022-12-29T22:35:05.592Z,99.90
2022-12-29T22:37:34.884Z,99.90
2022-12-29T22:40:02.243Z,99.90
2022-12-29T22:42:29.308Z,99.90
2022-12-29T22:44:56.479Z,99.90
2022-12-29T22:47:23.379Z,99.90
2022-12-29T22:49:50.592Z,99.90
2022-12-29T22:52:17.493Z,99.90
2022-12-29T22:54:44.475Z,99.90
2022-12-29T22:57:11.574Z,99.90
2022-12-29T22:59:40.116Z,99.90
2022-12-29T23:02:07.211Z,99.90
2022-12-29T23:05:02.445Z,99.90
2022-12-29T23:07:21.912Z,99.90
2022-12-29T23:09:49.064Z,99.90
2022-12-29T23:12:15.989Z,99.90
2022-12-29T23:14:42.858Z,99.90
2022-12-29T23:17:10.751Z,99.90
2022-12-29T23:19:37.613Z,99.90
2022-12-29T23:22:04.599Z,99.90
2022-12-29T23:24:31.920Z,99.90
2022-12-29T23:26:59.093Z,99.90
2022-12-29T23:29:26.071Z,99.90
2022-12-29T23:31:53.377Z,99.90
2022-12-29T23:34:20.440Z,99.90
2022-12-29T23:36:47.406Z,99.90
2022-12-29T23:39:18.164Z,99.90
2022-12-29T23:41:45.139Z,99.90
2022-12-29T23:44:12.034Z,99.90
2022-12-29T23:46:41.100Z,99.90
2022-12-29T23:49:08.708Z,99.90
2022-12-29T23:51:35.639Z,99.90
2022-12-29T23:54:02.531Z,99.90
2022-12-29T23:56:29.494Z,99.90
2022-12-29T23:58:56.487Z,99.90
